Xakanaxa Airport

BW-0032 · Botswana

METAR history BW-0032 · Xakanaxa Airport

Below you see METARs of the last few days. Select a year to browse through older METARs, from the year 2007 onwards.

July 18, 2024

Time Code Weather Temp. Visibility Ceiling Wind METAR/SPECI
06:00
V
9 °C 10 km+ - Var Var 2 kt METAR FBKE 180400Z VRB02KT CAVOK 09/M00 Q1021
05:00
V
12 °C 10 km+ - 040° 040° 3 kt METAR FBKE 180300Z 04003KT CAVOK 12/M01 Q1021

July 17, 2024

Time Code Weather Temp. Visibility Ceiling Wind METAR/SPECI
20:00
V
23 °C 10 km+ - 120° 120° 7 kt METAR FBKE 171800Z 12007KT CAVOK 23/M03 Q1021
19:00
V
24 °C 10 km+ - 130° 130° 6 kt METAR FBKE 171700Z 13006KT CAVOK 24/M03 Q1021
18:00
V
27 °C 10 km+ - 120° 120° 5 kt METAR FBKE 171600Z 12005KT CAVOK 27/M03 Q1020
17:00
V
29 °C 10 km+ - 120° 120° 7 kt METAR FBKE 171500Z 12007KT CAVOK 29/M04 Q1020
16:00
V
30 °C 10 km+ - 120° 120° 7 kt METAR FBKE 171400Z 12007KT 080V160 CAVOK 30/M04 Q1020
15:00
V
30 °C 10 km+ - 120° 120° 6 kt METAR FBKE 171300Z 12006KT 070V180 CAVOK 30/M03 Q1020
14:00
V
29 °C 10 km+ - 080° 080° 7 kt METAR FBKE 171200Z 08007KT 030V150 CAVOK 29/M01 Q1020
13:00
V
29 °C 10 km+ - 070° 070° 8 kt METAR FBKE 171100Z 07008KT 040V100 CAVOK 29/M00 Q1022
12:00
V
27 °C 10 km+ - 070° 070° 5 kt METAR FBKE 171000Z 07005KT 310V110 CAVOK 27/00 Q1023
11:00
V
26 °C 10 km+ - 060° 060° 6 kt METAR FBKE 170900Z 06006KT 030V090 CAVOK 26/00 Q1024
10:00
V
24 °C 10 km+ - 080° 080° 5 kt METAR FBKE 170800Z 08005KT 040V120 CAVOK 24/M00 Q1024
09:00
V
20 °C 10 km+ - 090° 090° 3 kt METAR FBKE 170700Z 09003KT 060V120 CAVOK 20/M01 Q1024
08:00
V
13 °C 10 km+ - Var Var 2 kt METAR FBKE 170600Z VRB02KT CAVOK 13/M01 Q1023
07:00
V
9 °C 10 km+ - Var Var 2 kt METAR FBKE 170500Z VRB02KT CAVOK 09/M03 Q1021
06:00
V
10 °C 10 km+ - 160° 160° 6 kt METAR FBKE 170400Z 16006KT CAVOK 10/M03 Q1021
05:00
V
11 °C 10 km+ - 160° 160° 9 kt METAR FBKE 170300Z 16009KT CAVOK 11/M03 Q1021

July 16, 2024

Time Code Weather Temp. Visibility Ceiling Wind METAR/SPECI
20:00
V
17 °C 10 km+ - 140° 140° 3 kt METAR FBKE 161800Z 14003KT CAVOK 17/M06 Q1020
19:00
V
19 °C 10 km+ - 110° 110° 3 kt METAR FBKE 161700Z 11003KT CAVOK 19/M06 Q1019
18:00
V
26 °C 10 km+ - 080° 080° 4 kt METAR FBKE 161600Z 08004KT CAVOK 26/M06 Q1019
17:00
V
30 °C 10 km+ - Var Var 2 kt METAR FBKE 161500Z VRB02KT CAVOK 30/M07 Q1019
16:00
V
31 °C 10 km+ - 290° 290° 6 kt METAR FBKE 161400Z 29006KT 220V340 CAVOK 31/M07 Q1019
15:00
V
31 °C 10 km+ - Var Var 3 kt METAR FBKE 161300Z VRB03KT CAVOK 31/M07 Q1019
14:00
V
31 °C 10 km+ - 270° 270° 6 kt METAR FBKE 161200Z 27006KT 220V020 CAVOK 31/M07 Q1020
13:00
V
30 °C 10 km+ - Var Var 6 kt METAR FBKE 161100Z VRB06KT CAVOK 30/M06 Q1021
12:00
V
30 °C 10 km+ - Var Var 4 kt METAR FBKE 161000Z VRB04KT CAVOK 30/M06 Q1021
11:00
V
29 °C 10 km+ - 160° 160° 4 kt METAR FBKE 160900Z 16004KT 120V270 CAVOK 29/M12 Q1022
10:00
V
26 °C 10 km+ - 150° 150° 7 kt METAR FBKE 160800Z 15007KT 120V180 CAVOK 26/M10 Q1023

July 15, 2024

Time Code Weather Temp. Visibility Ceiling Wind METAR/SPECI
20:00
V
22 °C 10 km+ - 150° 150° 6 kt METAR FBKE 151800Z 15006KT CAVOK 22/M09 Q1021
19:00
V
22 °C 10 km+ - 150° 150° 4 kt METAR FBKE 151700Z 15004KT CAVOK 22/M09 Q1021
18:00
V
28 °C 10 km+ - 180° 180° 4 kt METAR FBKE 151600Z 18004KT CAVOK 28/M08 Q1020
17:00
V
30 °C 10 km+ - 190° 190° 5 kt METAR FBKE 151500Z 19005KT 140V240 CAVOK 30/M07 Q1020
16:00
V
31 °C 10 km+ - 120° 120° 6 kt METAR FBKE 151400Z 12006KT 070V170 CAVOK 31/M05 Q1020
15:00
V
31 °C 10 km+ - Var Var 3 kt METAR FBKE 151300Z VRB03KT CAVOK 31/M05 Q1020
14:00
V
30 °C 10 km+ - 130° 130° 6 kt METAR FBKE 151200Z 13006KT 070V180 CAVOK 30/M04 Q1021
13:00
V
30 °C 10 km+ - Var Var 6 kt METAR FBKE 151100Z VRB06KT CAVOK 30/M03 Q1022
12:00
V
29 °C 10 km+ - 110° 110° 9 kt METAR FBKE 151000Z 11009KT 070V160 CAVOK 29/M03 Q1023
11:00
V
28 °C 10 km+ - 120° 120° 6 kt METAR FBKE 150900Z 12006KT 080V180 CAVOK 28/M02 Q1024
09:00
V
20 °C 10 km+ - Var Var 2 kt METAR FBKE 150700Z VRB02KT CAVOK 20/03 Q1024
08:00
V
14 °C 10 km+ - Var Var 2 kt METAR FBKE 150600Z VRB02KT CAVOK 14/02 Q1023
Report a change